Time;durP1;ratioP1;P1;durP2;ratioP2;P2;SDS_P1;SDS_P2;PMS_P1;PMS_P2;Temp;Humidity;BMP_temperature;BMP_pressure;BME280_temperature;BME280_humidity;BME280_pressure;Samples;Min_cycle;Max_cycle;Signal;HPM_P1;HPM_P2
2022/06/18 00:00:25;;;;;;;3.00;2.77;;;23.10;99.90;;;;;;5054056;28;20196;-55
2022/06/18 00:02:52;;;;;;;4.83;3.00;;;23.00;99.90;;;;;;5048168;28;20223;-54
2022/06/18 00:05:21;;;;;;;6.73;3.10;;;22.90;99.90;;;;;;5039666;28;20712;-55
2022/06/18 00:07:55;;;;;;;2.97;2.67;;;22.80;99.90;;;;;;5045683;28;20208;-55
2022/06/18 00:10:30;;;;;;;5.20;2.57;;;22.70;99.90;;;;;;5044978;28;20211;-55
2022/06/18 00:16:01;;;;;;;4.63;3.00;;;22.90;99.90;;;;;;5049315;28;20244;-55
2022/06/18 00:18:29;;;;;;;2.83;2.43;;;22.80;99.90;;;;;;5042444;28;20733;-55
2022/06/18 00:20:59;;;;;;;3.80;2.70;;;22.90;99.90;;;;;;5044345;28;20199;-54
2022/06/18 00:23:28;;;;;;;4.10;2.60;;;22.80;99.90;;;;;;5045865;28;20213;-54
2022/06/18 00:25:56;;;;;;;3.23;2.70;;;22.80;99.90;;;;;;5047829;28;20219;-54
2022/06/18 00:28:26;;;;;;;4.70;2.70;;;22.60;99.90;;;;;;5044499;28;20277;-55
2022/06/18 00:30:54;;;;;;;6.00;2.97;;;22.60;99.90;;;;;;5044188;28;20694;-55
2022/06/18 00:33:23;;;;;;;7.20;2.93;;;22.50;99.90;;;;;;5047655;28;20215;-53
2022/06/18 00:35:58;;;;;;;5.20;3.10;;;22.50;99.90;;;;;;5051085;28;20205;-59
2022/06/18 00:38:51;;;;;;;4.77;2.73;;;22.30;99.90;;;;;;5049055;28;20226;-55
2022/06/18 00:41:25;;;;;;;5.00;2.73;;;22.40;99.90;;;;;;5038632;28;20659;-55
2022/06/18 00:44:01;;;;;;;6.30;3.20;;;22.30;99.90;;;;;;5046637;28;20660;-57
2022/06/18 00:46:43;;;;;;;3.70;2.97;;;22.40;99.90;;;;;;5034038;28;20204;-53
2022/06/18 00:49:23;;;;;;;4.83;2.97;;;22.30;99.90;;;;;;5043164;28;20253;-56
2022/06/18 00:52:16;;;;;;;3.90;3.53;;;22.40;99.90;;;;;;5045192;28;20719;-55
2022/06/18 00:54:54;;;;;;;3.27;2.80;;;22.20;99.90;;;;;;5048716;28;20269;-54
2022/06/18 00:57:31;;;;;;;3.20;2.90;;;22.20;99.90;;;;;;5047431;28;20234;-55
2022/06/18 01:00:11;;;;;;;4.40;2.90;;;22.20;99.90;;;;;;5048168;28;21106;-55
2022/06/18 01:02:42;;;;;;;6.17;3.23;;;22.20;99.90;;;;;;5048192;28;20290;-55
2022/06/18 01:05:33;;;;;;;6.23;3.70;;;22.20;99.90;;;;;;5047162;28;20723;-55
2022/06/18 01:08:05;;;;;;;3.53;3.23;;;22.10;99.90;;;;;;5039911;28;20209;-55
2022/06/18 01:10:41;;;;;;;5.00;3.63;;;22.20;99.90;;;;;;5043050;28;20207;-56
2022/06/18 01:13:11;;;;;;;5.07;3.60;;;22.10;99.90;;;;;;5044927;28;20682;-56
2022/06/18 01:15:42;;;;;;;4.83;3.70;;;22.00;99.90;;;;;;5035237;28;20624;-55
2022/06/18 01:18:10;;;;;;;3.63;3.33;;;21.80;99.90;;;;;;5050640;28;20228;-54
2022/06/18 01:20:47;;;;;;;5.80;4.10;;;21.60;99.90;;;;;;5046521;28;20331;-54
2022/06/18 01:23:40;;;;;;;6.67;3.53;;;21.60;99.90;;;;;;5045721;28;20198;-54
2022/06/18 01:26:10;;;;;;;4.43;3.90;;;21.50;99.90;;;;;;5042011;28;20562;-54
2022/06/18 01:28:37;;;;;;;4.40;4.00;;;21.60;99.90;;;;;;5048844;28;20628;-55
2022/06/18 01:31:06;;;;;;;5.07;4.00;;;21.80;99.90;;;;;;5046092;28;20713;-55
2022/06/18 01:33:34;;;;;;;7.07;4.10;;;21.90;99.90;;;;;;5046971;28;20215;-54
2022/06/18 01:36:07;;;;;;;7.80;3.50;;;21.80;99.90;;;;;;5049571;28;20720;-55
2022/06/18 01:38:37;;;;;;;5.00;3.87;;;21.70;99.90;;;;;;5050828;28;20200;-54
2022/06/18 01:44:10;;;;;;;7.30;3.73;;;21.70;99.90;;;;;;5052964;28;20203;-53
2022/06/18 01:46:40;;;;;;;6.63;4.20;;;21.80;99.90;;;;;;5056047;28;20216;-55
2022/06/18 01:49:12;;;;;;;4.30;3.90;;;21.70;99.90;;;;;;5052806;28;20322;-54
2022/06/18 01:51:47;;;;;;;6.50;4.00;;;21.60;99.90;;;;;;5051381;28;20624;-55
2022/06/18 01:54:21;;;;;;;5.27;4.03;;;21.70;99.90;;;;;;5053914;28;20573;-55
2022/06/18 01:56:58;;;;;;;5.97;3.87;;;21.70;99.90;;;;;;5047972;28;20192;-54
2022/06/18 01:59:36;;;;;;;4.83;3.80;;;21.70;99.90;;;;;;5050106;28;20572;-54
2022/06/18 02:02:06;;;;;;;4.60;4.20;;;21.70;99.90;;;;;;5048264;28;20249;-54
2022/06/18 02:04:36;;;;;;;4.90;4.33;;;21.80;99.90;;;;;;5025327;28;20655;-54
2022/06/18 02:07:06;;;;;;;5.07;4.63;;;21.80;99.90;;;;;;5050113;28;20600;-54
2022/06/18 02:09:58;;;;;;;5.63;4.57;;;21.70;99.90;;;;;;5053501;28;20290;-54
2022/06/18 02:12:28;;;;;;;5.27;4.17;;;21.50;99.90;;;;;;5047571;28;20679;-55
2022/06/18 02:14:59;;;;;;;6.83;4.73;;;21.50;99.90;;;;;;5050403;28;20269;-54
2022/06/18 02:17:28;;;;;;;7.27;4.27;;;21.60;99.90;;;;;;5052123;28;20520;-54
2022/06/18 02:20:23;;;;;;;6.23;4.50;;;21.50;99.90;;;;;;5053303;28;20283;-54
2022/06/18 02:22:52;;;;;;;6.17;4.73;;;21.50;99.90;;;;;;5054145;28;20306;-55
2022/06/18 02:25:23;;;;;;;6.63;4.37;;;21.40;99.90;;;;;;5051551;28;20192;-54
2022/06/18 02:27:56;;;;;;;6.07;4.17;;;21.20;99.90;;;;;;5054530;28;20634;-55
2022/06/18 02:30:25;;;;;;;8.03;4.43;;;21.20;99.90;;;;;;5051142;28;20243;-55
2022/06/18 02:33:10;;;;;;;6.67;4.30;;;21.20;99.90;;;;;;5050647;28;20291;-54
2022/06/18 02:35:38;;;;;;;7.53;4.60;;;21.20;99.90;;;;;;5051557;28;20676;-54
2022/06/18 02:38:20;;;;;;;5.07;4.57;;;21.20;99.90;;;;;;5046049;28;20195;-54
2022/06/18 02:40:47;;;;;;;7.23;4.80;;;21.20;99.90;;;;;;5052884;28;20207;-57
2022/06/18 02:43:17;;;;;;;6.47;4.93;;;21.30;99.90;;;;;;5041132;28;20867;-54
2022/06/18 02:45:48;;;;;;;5.47;4.93;;;21.30;99.90;;;;;;5046520;28;20808;-55
2022/06/18 02:48:15;;;;;;;6.83;4.70;;;21.20;99.90;;;;;;5046275;28;20272;-55
2022/06/18 02:50:43;;;;;;;6.57;5.27;;;21.10;99.90;;;;;;5054110;28;20199;-54
2022/06/18 02:53:15;;;;;;;9.90;5.17;;;21.10;99.90;;;;;;5036717;28;20208;-55
2022/06/18 02:55:45;;;;;;;10.27;5.00;;;21.20;99.90;;;;;;5050912;28;20594;-55
2022/06/18 02:58:29;;;;;;;5.57;5.03;;;21.40;99.90;;;;;;5038483;28;20207;-54
2022/06/18 03:00:59;;;;;;;7.70;4.60;;;21.30;99.90;;;;;;5049201;28;20210;-53
2022/06/18 03:03:31;;;;;;;7.57;4.50;;;21.20;99.90;;;;;;5052812;28;20247;-54
2022/06/18 03:05:58;;;;;;;6.13;4.90;;;21.40;99.90;;;;;;5052088;28;20204;-56
2022/06/18 03:08:27;;;;;;;9.57;5.50;;;21.30;99.90;;;;;;5047415;28;20216;-54
2022/06/18 03:13:40;;;;;;;4.77;4.27;;;21.30;99.90;;;;;;5047307;28;20216;-55
2022/06/18 03:16:09;;;;;;;6.90;5.70;;;21.20;99.90;;;;;;5048537;28;20223;-54
2022/06/18 03:18:38;;;;;;;8.60;5.03;;;21.20;99.90;;;;;;5051765;28;20253;-55
2022/06/18 03:21:24;;;;;;;6.93;5.10;;;21.30;99.90;;;;;;5047099;28;20201;-55
2022/06/18 03:23:53;;;;;;;6.20;4.87;;;21.30;99.90;;;;;;5045191;28;20235;-54
2022/06/18 03:26:21;;;;;;;6.07;4.77;;;21.30;99.90;;;;;;5053099;28;20203;-54
2022/06/18 03:28:48;;;;;;;8.63;5.70;;;21.30;99.90;;;;;;5048814;28;20252;-54
2022/06/18 03:31:15;;;;;;;7.40;6.10;;;21.30;99.90;;;;;;5051704;28;20214;-54
2022/06/18 03:33:42;;;;;;;6.37;5.60;;;21.40;99.90;;;;;;5053293;28;20639;-54
2022/06/18 03:36:13;;;;;;;8.73;5.73;;;21.30;99.90;;;;;;5044619;28;20219;-56
2022/06/18 03:38:44;;;;;;;7.03;5.37;;;21.30;99.90;;;;;;5050669;28;20268;-53
2022/06/18 03:41:12;;;;;;;6.63;5.00;;;21.30;99.90;;;;;;5044077;28;20265;-55
2022/06/18 03:43:39;;;;;;;9.47;5.97;;;21.40;99.90;;;;;;5048761;28;20210;-54
2022/06/18 03:46:09;;;;;;;8.63;5.70;;;21.20;99.90;;;;;;5048876;28;20230;-54
2022/06/18 03:48:45;;;;;;;6.63;5.60;;;21.20;99.90;;;;;;5062312;28;20722;-55
2022/06/18 03:51:13;;;;;;;7.13;6.13;;;21.20;99.90;;;;;;5049506;28;20207;-54
2022/06/18 03:53:40;;;;;;;7.70;5.13;;;21.20;99.90;;;;;;5052320;28;20345;-54
2022/06/18 03:56:11;;;;;;;6.20;5.47;;;21.00;99.90;;;;;;5044220;28;20682;-54
2022/06/18 03:58:39;;;;;;;7.47;5.17;;;21.10;99.90;;;;;;5045443;28;20216;-55
2022/06/18 04:01:08;;;;;;;9.53;5.60;;;21.10;99.90;;;;;;5058301;28;20242;-53
2022/06/18 04:03:34;;;;;;;6.27;5.43;;;21.20;99.90;;;;;;5051345;28;20277;-55
2022/06/18 04:06:02;;;;;;;10.17;5.87;;;21.20;99.90;;;;;;5044163;28;20298;-56
2022/06/18 04:08:28;;;;;;;9.37;5.80;;;21.00;99.90;;;;;;5049825;28;20642;-55
2022/06/18 04:10:55;;;;;;;7.27;5.67;;;20.90;99.90;;;;;;5035524;28;20290;-55
2022/06/18 04:13:28;;;;;;;8.00;5.70;;;20.70;99.90;;;;;;5045539;28;20573;-55
2022/06/18 04:15:55;;;;;;;6.10;5.07;;;20.90;99.90;;;;;;5050556;28;20675;-56
2022/06/18 04:18:23;;;;;;;9.00;5.17;;;21.10;99.90;;;;;;5047788;28;20306;-53
2022/06/18 04:20:50;;;;;;;7.57;5.77;;;21.00;99.90;;;;;;5050430;28;20196;-54
2022/06/18 04:23:16;;;;;;;7.40;5.50;;;21.00;99.90;;;;;;5042860;28;20211;-56
2022/06/18 04:25:44;;;;;;;10.07;6.20;;;21.00;99.90;;;;;;5051944;28;20200;-56
2022/06/18 04:28:15;;;;;;;9.50;6.23;;;21.10;99.90;;;;;;5047805;28;20256;-54
2022/06/18 04:30:42;;;;;;;9.20;6.23;;;21.20;99.90;;;;;;5036713;28;20214;-55
2022/06/18 04:33:10;;;;;;;9.77;5.37;;;21.20;99.90;;;;;;5045019;28;20254;-54
2022/06/18 04:35:38;;;;;;;7.20;6.50;;;21.30;99.90;;;;;;5049515;28;20933;-53
2022/06/18 04:38:06;;;;;;;8.13;6.10;;;21.10;99.90;;;;;;5051882;28;20204;-54
2022/06/18 04:40:34;;;;;;;13.77;6.77;;;21.20;99.90;;;;;;5036755;28;20604;-55
2022/06/18 04:43:21;;;;;;;8.07;5.90;;;21.10;99.90;;;;;;5054048;28;20208;-54
2022/06/18 04:45:48;;;;;;;10.10;5.67;;;21.20;99.90;;;;;;5037159;28;20293;-57
2022/06/18 04:48:15;;;;;;;10.87;5.60;;;21.20;99.90;;;;;;5050377;28;20313;-56
2022/06/18 04:50:42;;;;;;;10.60;5.97;;;21.20;99.90;;;;;;5052459;28;20207;-53
2022/06/18 04:53:11;;;;;;;7.63;5.83;;;21.30;99.90;;;;;;5053313;28;20286;-54
2022/06/18 04:55:38;;;;;;;8.27;5.13;;;21.40;99.90;;;;;;5052974;28;20252;-55
2022/06/18 04:58:06;;;;;;;7.57;5.53;;;21.30;99.90;;;;;;5053246;28;20328;-53
2022/06/18 05:00:34;;;;;;;7.87;5.97;;;21.30;99.90;;;;;;5047576;28;20504;-56
2022/06/18 05:03:01;;;;;;;10.63;5.93;;;21.40;99.90;;;;;;5052270;28;20203;-55
2022/06/18 05:05:29;;;;;;;6.10;5.37;;;21.50;99.90;;;;;;5053042;28;20695;-54
2022/06/18 05:07:56;;;;;;;7.67;6.07;;;21.50;99.90;;;;;;5049246;28;21988;-55
2022/06/18 05:10:23;;;;;;;6.73;5.17;;;21.50;99.90;;;;;;5051307;28;20219;-54
2022/06/18 05:12:50;;;;;;;13.60;6.27;;;21.60;99.90;;;;;;5048143;28;20203;-53
2022/06/18 05:15:17;;;;;;;9.50;6.50;;;21.50;99.90;;;;;;5044139;28;20266;-54
2022/06/18 05:17:45;;;;;;;7.53;5.87;;;21.50;99.90;;;;;;5050490;28;20204;-54
2022/06/18 05:20:20;;;;;;;7.13;5.77;;;21.50;99.90;;;;;;5052160;28;20227;-55
2022/06/18 05:22:47;;;;;;;10.60;5.93;;;21.60;99.90;;;;;;5048004;28;20290;-55
2022/06/18 05:25:15;;;;;;;11.57;6.20;;;21.60;99.90;;;;;;5049635;28;20203;-54
2022/06/18 05:27:43;;;;;;;10.57;5.77;;;21.70;99.90;;;;;;5047202;28;20659;-53
2022/06/18 05:30:16;;;;;;;9.17;6.00;;;21.50;99.90;;;;;;5048039;28;20191;-56
2022/06/18 05:32:46;;;;;;;8.00;5.60;;;21.50;99.90;;;;;;5049128;28;20200;-55
2022/06/18 05:35:13;;;;;;;10.43;6.43;;;21.60;99.90;;;;;;5045641;28;20222;-55
2022/06/18 05:37:41;;;;;;;8.63;5.50;;;21.70;99.90;;;;;;5048182;28;20204;-55
2022/06/18 05:40:10;;;;;;;9.17;5.63;;;21.90;99.90;;;;;;5050787;28;20331;-55
2022/06/18 05:42:37;;;;;;;7.37;5.60;;;22.00;99.90;;;;;;5043015;28;20300;-54
2022/06/18 05:45:05;;;;;;;7.83;6.30;;;21.90;99.90;;;;;;5036818;28;20277;-54
2022/06/18 05:47:33;;;;;;;9.60;6.87;;;22.00;99.90;;;;;;5046577;28;20352;-53
2022/06/18 05:50:06;;;;;;;12.00;6.00;;;22.10;99.90;;;;;;5048128;28;20222;-56
2022/06/18 05:52:33;;;;;;;9.17;6.07;;;22.10;99.90;;;;;;5047231;28;20214;-55
2022/06/18 05:55:01;;;;;;;7.80;6.33;;;22.10;99.90;;;;;;5048853;28;20956;-54
2022/06/18 05:57:28;;;;;;;14.20;6.03;;;22.00;99.90;;;;;;5045359;28;20673;-54
2022/06/18 05:59:55;;;;;;;11.00;6.30;;;22.20;99.90;;;;;;5045581;28;20204;-53
2022/06/18 06:02:22;;;;;;;13.03;5.97;;;22.30;99.90;;;;;;5046767;28;20214;-54
2022/06/18 06:04:49;;;;;;;7.67;5.07;;;22.10;99.90;;;;;;5044002;28;20272;-54
2022/06/18 06:07:23;;;;;;;10.07;5.30;;;22.10;99.90;;;;;;5039715;28;20231;-54
2022/06/18 06:12:37;;;;;;;10.10;4.90;;;22.10;99.90;;;;;;5049493;28;20250;-55
2022/06/18 06:15:06;;;;;;;6.83;5.30;;;22.20;99.90;;;;;;5064216;28;20609;-55
2022/06/18 06:17:36;;;;;;;11.70;5.83;;;22.20;99.90;;;;;;5051265;28;20196;-55
2022/06/18 06:20:13;;;;;;;11.70;5.20;;;22.40;99.90;;;;;;5047567;28;20569;-55
2022/06/18 06:22:40;;;;;;;11.97;5.20;;;22.40;99.90;;;;;;5045731;28;20631;-55
2022/06/18 06:25:07;;;;;;;12.37;5.67;;;22.40;99.90;;;;;;5053757;28;20290;-56
2022/06/18 06:27:34;;;;;;;11.10;5.33;;;22.40;99.90;;;;;;5052912;28;20243;-55
2022/06/18 06:30:01;;;;;;;11.00;5.27;;;22.50;99.90;;;;;;5051279;28;20322;-55
2022/06/18 06:32:28;;;;;;;9.97;5.57;;;22.60;99.90;;;;;;5046302;28;20736;-55
2022/06/18 06:34:58;;;;;;;12.43;5.30;;;22.50;99.90;;;;;;5048276;28;20681;-57
2022/06/18 06:37:25;;;;;;;8.93;5.67;;;22.70;99.90;;;;;;5051613;28;20216;-55
2022/06/18 06:39:52;;;;;;;7.00;4.70;;;22.80;99.90;;;;;;5050805;28;20741;-55
2022/06/18 06:42:19;;;;;;;8.93;5.50;;;23.00;99.90;;;;;;5047881;28;20306;-57
2022/06/18 06:44:46;;;;;;;14.20;5.77;;;23.10;99.90;;;;;;5042610;28;20200;-55
2022/06/18 06:47:13;;;;;;;11.17;5.43;;;23.00;99.90;;;;;;5047648;28;20253;-54
2022/06/18 06:49:41;;;;;;;10.63;6.13;;;23.10;99.90;;;;;;5041580;28;20209;-55
2022/06/18 06:52:12;;;;;;;9.40;5.40;;;23.20;99.90;;;;;;5043143;28;20217;-54
2022/06/18 06:54:39;;;;;;;10.20;6.63;;;23.20;99.90;;;;;;5037884;28;20249;-54
2022/06/18 06:57:21;;;;;;;13.30;6.00;;;23.40;99.90;;;;;;5050203;28;20232;-54
2022/06/18 06:59:49;;;;;;;8.23;5.40;;;23.50;99.90;;;;;;5042692;28;20516;-55
2022/06/18 07:02:21;;;;;;;8.20;5.30;;;23.50;99.90;;;;;;5047977;28;20631;-55
2022/06/18 07:04:47;;;;;;;12.13;5.63;;;23.70;99.90;;;;;;5028397;28;20206;-54
2022/06/18 07:07:15;;;;;;;10.43;5.47;;;23.80;99.90;;;;;;5048482;28;20249;-55
2022/06/18 07:09:43;;;;;;;13.00;5.63;;;23.90;99.90;;;;;;5049238;28;20209;-56
2022/06/18 07:12:10;;;;;;;7.37;5.37;;;23.80;99.90;;;;;;5034411;28;20233;-54
2022/06/18 07:14:37;;;;;;;9.80;5.20;;;23.80;99.90;;;;;;5041991;28;20227;-55
2022/06/18 07:17:04;;;;;;;9.93;5.23;;;24.10;99.90;;;;;;5052750;28;20675;-55
2022/06/18 07:19:31;;;;;;;8.40;5.20;;;24.00;99.90;;;;;;5052921;28;20205;-54
2022/06/18 07:21:58;;;;;;;9.50;5.47;;;24.40;99.90;;;;;;5054057;28;20212;-55
2022/06/18 07:24:26;;;;;;;9.90;5.03;;;24.60;99.90;;;;;;5052393;28;20229;-55
2022/06/18 07:26:53;;;;;;;9.07;5.50;;;24.30;99.90;;;;;;5048631;28;20289;-55
2022/06/18 07:29:20;;;;;;;12.97;5.50;;;24.40;99.90;;;;;;5043871;28;20530;-55
2022/06/18 07:31:49;;;;;;;8.47;4.90;;;24.60;99.90;;;;;;5051137;28;20213;-56
2022/06/18 07:34:16;;;;;;;9.87;4.97;;;24.70;99.90;;;;;;5054851;28;20649;-53
2022/06/18 07:36:44;;;;;;;9.97;6.00;;;24.70;99.90;;;;;;5055355;28;20300;-54
2022/06/18 07:39:11;;;;;;;12.03;6.73;;;25.00;99.90;;;;;;5056706;28;20277;-55
2022/06/18 07:41:45;;;;;;;9.27;6.57;;;24.80;99.90;;;;;;5049677;28;20619;-55
2022/06/18 07:44:12;;;;;;;10.70;5.70;;;24.70;99.90;;;;;;5049238;28;20196;-53
2022/06/18 07:46:40;;;;;;;13.40;5.80;;;24.80;99.90;;;;;;5050691;28;20917;-55
2022/06/18 07:49:07;;;;;;;12.43;5.73;;;25.00;99.90;;;;;;5050979;28;20228;-55
2022/06/18 07:51:35;;;;;;;10.43;5.33;;;25.10;99.90;;;;;;5051999;28;20224;-54
2022/06/18 07:54:02;;;;;;;9.43;5.53;;;25.30;99.90;;;;;;5041740;28;20337;-55
2022/06/18 07:56:30;;;;;;;13.27;6.40;;;25.50;99.90;;;;;;5040948;28;20370;-54
2022/06/18 07:58:58;;;;;;;10.73;6.00;;;25.50;99.90;;;;;;5045235;28;20207;-53
2022/06/18 08:01:25;;;;;;;10.93;6.50;;;25.70;99.90;;;;;;5047016;28;20198;-54
2022/06/18 08:03:52;;;;;;;9.80;5.87;;;26.00;99.90;;;;;;5047635;28;20302;-53
2022/06/18 08:06:19;;;;;;;10.97;6.27;;;25.70;99.90;;;;;;5047045;28;20575;-56
2022/06/18 08:08:46;;;;;;;11.77;6.03;;;25.80;99.90;;;;;;5043603;28;20627;-55
2022/06/18 08:11:16;;;;;;;9.77;5.10;;;26.00;99.90;;;;;;5047030;28;20902;-54
2022/06/18 08:13:43;;;;;;;9.03;6.13;;;26.00;99.90;;;;;;5035074;28;20200;-54
2022/06/18 08:16:16;;;;;;;11.63;5.40;;;26.10;99.90;;;;;;5036645;28;20427;-54
2022/06/18 08:18:43;;;;;;;12.70;5.87;;;26.30;99.90;;;;;;5048168;28;21244;-54
2022/06/18 08:21:28;;;;;;;13.53;5.60;;;26.40;99.90;;;;;;5046749;28;20697;-54
2022/06/18 08:24:10;;;;;;;9.77;4.57;;;27.30;99.90;;;;;;5048136;28;20200;-55
2022/06/18 08:26:39;;;;;;;13.53;5.40;;;28.20;99.90;;;;;;5046317;28;20203;-53
2022/06/18 08:29:10;;;;;;;9.30;5.03;;;28.40;99.90;;;;;;5032535;28;20325;-54
2022/06/18 08:31:37;;;;;;;8.03;4.20;;;28.90;99.90;;;;;;5048157;28;20621;-53
2022/06/18 08:34:04;;;;;;;13.90;5.30;;;29.80;99.90;;;;;;5053809;28;20634;-54
2022/06/18 08:36:33;;;;;;;9.43;4.63;;;30.10;75.20;;;;;;5046173;28;20242;-54
2022/06/18 08:39:02;;;;;;;12.23;5.03;;;29.50;91.80;;;;;;5047004;28;20206;-56
2022/06/18 08:41:51;;;;;;;10.27;5.60;;;29.50;94.20;;;;;;5045697;28;20214;-55
2022/06/18 08:44:40;;;;;;;12.93;4.73;;;29.60;92.90;;;;;;5046681;28;20491;-54
2022/06/18 08:47:28;;;;;;;6.35;4.30;;;30.20;54.40;;;;;;5046024;28;20198;-53
2022/06/18 08:50:25;;;;;;;8.60;4.80;;;30.20;40.30;;;;;;5053131;28;20200;-54
2022/06/18 08:53:29;;;;;;;10.87;5.17;;;30.70;27.50;;;;;;5046700;28;20261;-54
2022/06/18 08:56:10;;;;;;;8.53;3.70;;;30.20;51.10;;;;;;5047126;28;20243;-53
2022/06/18 08:59:02;;;;;;;7.75;4.88;;;31.00;43.50;;;;;;5033419;28;20733;-54
2022/06/18 09:01:38;;;;;;;13.63;5.40;;;31.10;24.50;;;;;;5034342;28;20721;-53
2022/06/18 09:04:39;;;;;;;11.60;5.97;;;30.50;52.60;;;;;;5049406;28;20195;-54
2022/06/18 09:07:30;;;;;;;8.02;4.55;;;30.50;23.30;;;;;;5044177;28;20317;-54
2022/06/18 09:10:09;;;;;;;11.00;5.68;;;30.80;45.40;;;;;;5044992;28;20622;-55
2022/06/18 09:12:44;;;;;;;10.52;4.63;;;31.20;40.10;;;;;;5040481;28;20257;-53
2022/06/18 09:15:31;;;;;;;11.82;4.80;;;30.70;59.40;;;;;;5035053;28;20366;-60
2022/06/18 09:18:20;;;;;;;13.57;5.65;;;31.10;62.60;;;;;;5042199;28;20298;-54
2022/06/18 09:20:56;;;;;;;9.68;5.22;;;31.70;36.60;;;;;;5043555;28;20727;-53
2022/06/18 09:23:26;;;;;;;12.35;6.25;;;31.10;26.00;;;;;;5044078;28;20647;-56
2022/06/18 09:25:58;;;;;;;7.00;4.70;;;30.40;34.70;;;;;;5042281;28;20215;-55
2022/06/18 09:28:32;;;;;;;12.20;5.13;;;31.10;41.90;;;;;;5027323;28;20208;-55
2022/06/18 09:31:09;;;;;;;7.53;4.70;;;31.00;39.80;;;;;;5051400;28;20204;-54
2022/06/18 09:33:51;;;;;;;14.85;4.97;;;30.40;66.10;;;;;;5047134;28;20597;-55
2022/06/18 09:36:25;;;;;;;10.20;6.18;;;31.00;91.80;;;;;;5046911;28;20216;-56
2022/06/18 09:39:08;;;;;;;9.32;4.38;;;31.70;43.70;;;;;;5046982;28;20214;-55
2022/06/18 09:42:08;;;;;;;9.07;5.40;;;32.40;19.80;;;;;;5037394;28;20245;-55
2022/06/18 09:44:41;;;;;;;10.75;5.85;;;31.60;10.50;;;;;;5047476;28;20231;-55
2022/06/18 09:47:32;;;;;;;8.63;6.05;;;30.50;59.30;;;;;;5039702;28;20208;-55
2022/06/18 09:49:59;;;;;;;8.98;5.72;;;29.90;99.90;;;;;;5017291;28;20544;-54
2022/06/18 09:52:39;;;;;;;12.98;6.28;;;29.10;99.90;;;;;;5041377;28;20232;-56
2022/06/18 09:55:20;;;;;;;10.15;5.10;;;28.60;99.90;;;;;;5041040;28;20243;-54
2022/06/18 09:57:57;;;;;;;10.75;5.63;;;29.10;99.90;;;;;;5044134;28;20200;-55
2022/06/18 10:00:29;;;;;;;12.75;6.22;;;29.30;99.20;;;;;;5044842;28;20608;-54
2022/06/18 10:03:12;;;;;;;11.02;4.95;;;29.60;99.90;;;;;;5041495;28;20200;-54
2022/06/18 10:08:38;;;;;;;10.30;4.93;;;30.30;68.40;;;;;;5042060;28;20208;-53
2022/06/18 10:11:08;;;;;;;12.18;4.85;;;30.20;84.30;;;;;;5040447;28;20230;-55
2022/06/18 10:13:50;;;;;;;11.50;5.68;;;30.30;92.90;;;;;;5041340;28;20522;-53
2022/06/18 10:16:49;;;;;;;7.00;5.00;;;29.60;99.90;;;;;;5041580;28;20216;-54
2022/06/18 10:19:30;;;;;;;12.75;5.88;;;29.10;99.90;;;;;;5036989;28;20210;-53
2022/06/18 10:22:18;;;;;;;11.48;5.80;;;29.60;99.90;;;;;;5045416;28;20837;-53
2022/06/18 10:24:51;;;;;;;9.13;5.43;;;30.10;96.80;;;;;;5041355;28;20216;-55
2022/06/18 10:27:44;;;;;;;11.30;5.05;;;29.80;99.90;;;;;;5045812;28;20204;-53
2022/06/18 10:30:20;;;;;;;13.15;6.43;;;29.50;97.60;;;;;;5046368;28;20336;-54
2022/06/18 10:33:12;;;;;;;14.90;5.03;;;29.60;99.90;;;;;;5047595;28;20195;-58
2022/06/18 10:36:08;;;;;;;11.32;4.90;;;30.10;99.90;;;;;;5040033;28;20219;-55
2022/06/18 10:38:56;;;;;;;12.27;4.15;;;30.40;94.70;;;;;;5051859;28;20192;-55
2022/06/18 10:41:30;;;;;;;7.60;4.70;;;30.60;80.70;;;;;;5045704;28;20653;-55
2022/06/18 10:44:05;;;;;;;10.90;5.15;;;30.50;46.60;;;;;;5032962;28;20204;-55
2022/06/18 10:46:39;;;;;;;9.68;5.25;;;30.50;65.30;;;;;;5045639;28;20649;-53
2022/06/18 10:49:06;;;;;;;8.57;4.95;;;31.00;58.90;;;;;;5039280;28;20228;-55
2022/06/18 10:51:48;;;;;;;11.38;5.50;;;30.90;66.60;;;;;;5037713;28;20660;-55
2022/06/18 10:54:15;;;;;;;7.65;5.38;;;31.00;37.60;;;;;;5035407;28;20789;-54
2022/06/18 10:56:50;;;;;;;10.13;4.72;;;30.50;54.40;;;;;;5034906;28;20263;-55
2022/06/18 10:59:31;;;;;;;15.18;4.80;;;31.40;71.80;;;;;;5041999;28;20218;-54
2022/06/18 11:02:12;;;;;;;11.75;5.43;;;31.40;25.90;;;;;;5040398;28;20294;-55
2022/06/18 11:04:58;;;;;;;18.98;6.82;;;30.80;11.40;;;;;;5040003;28;20215;-54
2022/06/18 11:07:28;;;;;;;14.25;5.90;;;30.30;19.30;;;;;;5046523;28;20204;-54
2022/06/18 11:10:04;;;;;;;10.07;4.47;;;29.90;24.30;;;;;;5043881;28;20212;-53
2022/06/18 11:12:38;;;;;;;12.13;5.15;;;30.80;37.10;;;;;;5046651;28;20318;-52
2022/06/18 11:15:28;;;;;;;10.80;4.22;;;31.80;19.70;;;;;;5039615;28;20200;-54
2022/06/18 11:17:55;;;;;;;13.68;5.00;;;32.70;16.80;;;;;;5036530;28;20254;-55
2022/06/18 11:20:28;;;;;;;8.15;4.68;;;32.60;1.40;;;;;;5044478;28;20286;-57
2022/06/18 11:23:13;;;;;;;10.48;4.70;;;32.80;3.50;;;;;;5044584;28;20199;-54
2022/06/18 11:25:49;;;;;;;12.10;5.72;;;32.60;6.00;;;;;;5048644;28;20203;-53
2022/06/18 11:28:23;;;;;;;11.90;5.53;;;31.70;11.00;;;;;;5051566;28;20206;-54
2022/06/18 11:30:51;;;;;;;14.65;5.18;;;31.10;26.10;;;;;;5048555;28;20286;-53
2022/06/18 11:33:27;;;;;;;10.63;5.38;;;31.30;21.20;;;;;;5049206;28;20204;-52
2022/06/18 11:35:54;;;;;;;9.95;5.20;;;31.70;39.60;;;;;;5049845;28;20246;-52
2022/06/18 11:38:30;;;;;;;8.88;5.25;;;31.20;17.10;;;;;;5049628;28;20196;-55
2022/06/18 11:41:06;;;;;;;10.45;4.80;;;30.80;7.10;;;;;;5047875;28;20206;-54
2022/06/18 11:44:06;;;;;;;10.32;4.47;;;31.80;1.70;;;;;;5049379;28;20252;-54
2022/06/18 11:46:59;;;;;;;12.73;5.60;;;33.50;5.30;;;;;;4994370;28;20232;-54
2022/06/18 11:49:45;;;;;;;7.63;3.78;;;33.30;18.60;;;;;;5050211;28;20353;-54
2022/06/18 11:52:38;;;;;;;8.85;4.43;;;32.80;1.00;;;;;;5040389;28;20257;-55
2022/06/18 11:55:26;;;;;;;15.07;4.50;;;33.00;1.00;;;;;;5030752;28;20228;-56
2022/06/18 11:58:27;;;;;;;9.68;5.47;;;33.40;1.00;;;;;;5045517;28;20621;-54
2022/06/18 12:01:21;;;;;;;9.50;4.47;;;32.80;1.00;;;;;;5044578;28;20204;-54
2022/06/18 12:03:52;;;;;;;10.75;5.30;;;32.30;1.00;;;;;;5053095;28;20717;-52
2022/06/18 12:06:43;;;;;;;9.98;5.28;;;32.70;1.00;;;;;;5044384;28;20568;-56
2022/06/18 12:09:24;;;;;;;9.75;5.88;;;32.50;1.00;;;;;;5050492;28;20635;-55
2022/06/18 12:12:10;;;;;;;8.35;4.53;;;32.50;1.00;;;;;;5043518;28;20231;-54
2022/06/18 12:14:54;;;;;;;12.35;4.95;;;32.50;1.00;;;;;;5049543;28;20199;-55
2022/06/18 12:17:37;;;;;;;11.63;5.03;;;33.10;1.00;;;;;;5043513;28;20752;-55
2022/06/18 12:20:24;;;;;;;10.70;4.50;;;33.30;1.00;;;;;;5043770;28;20237;-54
2022/06/18 12:23:33;;;;;;;7.55;5.03;;;33.30;1.00;;;;;;5035016;28;20207;-54
2022/06/18 12:26:32;;;;;;;10.63;4.68;;;32.60;1.00;;;;;;5050920;28;20237;-55
2022/06/18 12:29:14;;;;;;;16.05;6.10;;;32.90;1.00;;;;;;5050986;28;20201;-54
2022/06/18 12:31:55;;;;;;;11.27;4.65;;;32.60;1.00;;;;;;5043186;28;20227;-53
2022/06/18 12:34:46;;;;;;;11.50;5.40;;;33.30;1.00;;;;;;5043964;28;20207;-55
2022/06/18 12:37:31;;;;;;;8.50;4.90;;;33.50;1.00;;;;;;5047722;28;20231;-54
2022/06/18 12:40:36;;;;;;;10.80;4.75;;;33.70;1.00;;;;;;5052164;28;20194;-53
2022/06/18 12:43:42;;;;;;;12.95;5.13;;;33.50;1.00;;;;;;5043325;28;20199;-54
2022/06/18 12:46:28;;;;;;;8.80;5.15;;;33.40;1.00;;;;;;5048960;28;20227;-56
2022/06/18 12:49:19;;;;;;;15.45;5.88;;;32.80;1.00;;;;;;5048228;28;20350;-55
2022/06/18 12:51:53;;;;;;;11.73;5.03;;;32.80;1.00;;;;;;5042264;28;20215;-53
2022/06/18 12:54:58;;;;;;;6.68;4.20;;;33.20;1.00;;;;;;5045357;28;20286;-53
2022/06/18 12:57:52;;;;;;;9.80;5.25;;;33.60;1.00;;;;;;5050553;28;20315;-55
2022/06/18 13:00:31;;;;;;;9.95;5.63;;;33.90;1.00;;;;;;5042944;28;20294;-55
2022/06/18 13:03:09;;;;;;;15.57;5.90;;;32.50;1.20;;;;;;5044140;28;20196;-54
2022/06/18 13:05:46;;;;;;;9.85;4.55;;;32.20;1.00;;;;;;5033944;28;20207;-53
2022/06/18 13:08:53;;;;;;;11.10;4.60;;;32.80;1.00;;;;;;5037834;28;20230;-55
2022/06/18 13:11:49;;;;;;;10.90;5.43;;;34.00;1.00;;;;;;5043112;28;20656;-54
2022/06/18 13:14:35;;;;;;;9.82;4.40;;;34.20;6.70;;;;;;5037426;28;20551;-55
2022/06/18 13:17:13;;;;;;;8.65;4.53;;;33.70;1.00;;;;;;5041158;28;20666;-55
2022/06/18 13:20:03;;;;;;;9.48;4.85;;;33.70;1.00;;;;;;5034113;28;20203;-55
2022/06/18 13:22:30;;;;;;;13.10;5.60;;;32.90;1.00;;;;;;5040726;28;20234;-53
2022/06/18 13:30:59;;;;;;;15.95;5.63;;;32.80;1.00;;;;;;5052907;28;20245;-57
2022/06/18 13:33:43;;;;;;;7.88;4.97;;;33.30;1.00;;;;;;5028070;28;20214;-55
2022/06/18 13:36:17;;;;;;;8.77;5.07;;;32.40;1.00;;;;;;5041902;28;20294;-55
2022/06/18 13:38:50;;;;;;;12.38;5.63;;;31.90;12.10;;;;;;5046061;28;20532;-55
2022/06/18 13:41:28;;;;;;;8.23;4.97;;;31.50;19.60;;;;;;5051020;28;20208;-55
2022/06/18 13:44:08;;;;;;;10.02;5.07;;;31.80;14.30;;;;;;5052169;28;20207;-55